Wetterstation Vordersexau
Wetterdaten: September 2016
Datum Temp. A. Feuchte A. Luftdruck Regen Wind Richtung Taupunkt Windchill Windben
01.09.2016 28,4 C 43 % 1019,8 hPa 78,2 l/m 1,6 km/h N 13,5 C 28,4 C 0,9 km/h
02.09.2016 21,7 C 61 % 1018,6 hPa 0,0 l/m 1,1 km/h N 12,8 C 21,5 C 0,6 km/h
03.09.2016 21,5 C 62 % 1016,7 hPa 0,0 l/m 1,4 km/h O-NO 13,0 C 21,5 C 0,8 km/h
04.09.2016 18,4 C 73 % 1014,5 hPa 5,7 l/m 3,9 km/h O-SO 13,1 C 17,9 C 2,2 km/h
05.09.2016 18,8 C 72 % 1018,8 hPa 8,3 l/m 1,5 km/h S 13,3 C 18,7 C 0,9 km/h
06.09.2016 20,2 C 63 % 1021,9 hPa 0,0 l/m 1,0 km/h O-SO 11,8 C 20,2 C 0,6 km/h
07.09.2016 20,1 C 55 % 1015,9 hPa 0,0 l/m 1,8 km/h W-NW 6,8 C 20,0 C 1,0 km/h
08.09.2016 20,9 C 55 % 1011,9 hPa 0,0 l/m 5,3 km/h SO 7,1 C 20,7 C 3,0 km/h
09.09.2016 22,3 C 66 % 1014,3 hPa 0,0 l/m 2,4 km/h SO 14,9 C 22,3 C 1,3 km/h
10.09.2016 23,0 C 64 % 1013,7 hPa 0,0 l/m 0,9 km/h NO 14,8 C 22,9 C 0,5 km/h
11.09.2016 23,0 C 65 % 1014,9 hPa 0,0 l/m 0,3 km/h NO 15,2 C 23,0 C 0,2 km/h
12.09.2016 23,5 C 63 % 1014,4 hPa 0,0 l/m 1,6 km/h NO 14,7 C 23,5 C 0,9 km/h
13.09.2016 24,0 C 63 % 1012,0 hPa 0,0 l/m 0,2 km/h W 15,4 C 24,0 C 0,1 km/h
14.09.2016 23,5 C 65 % 1009,4 hPa 0,0 l/m 2,1 km/h NO 15,4 C 23,3 C 1,2 km/h
15.09.2016 18,8 C 77 % 1009,1 hPa 0,5 l/m 1,5 km/h N-NO 14,7 C 18,6 C 0,9 km/h
16.09.2016 17,0 C 74 % 1012,8 hPa 0,0 l/m 0,0 km/h W 12,2 C 17,0 C 0,0 km/h
17.09.2016 17,6 C 71 % 1012,6 hPa 0,0 l/m 5,5 km/h S-SW 11,9 C 17,0 C 3,0 km/h
21.09.2016 22,7 C 44 % 1014,9 hPa 19,2 l/m 6,9 km/h N-NO 9,1 C 22,2 C 3,9 km/h
22.09.2016 14,5 C 67 % 1018,4 hPa 0,0 l/m 0,6 km/h N-NO 7,6 C 14,4 C 0,3 km/h
23.09.2016 15,7 C 68 % 1022,2 hPa 0,0 l/m 1,2 km/h O-SO 9,1 C 15,5 C 0,6 km/h
24.09.2016 16,4 C 68 % 1021,6 hPa 0,0 l/m 0,0 km/h W 9,8 C 16,4 C 0,0 km/h
25.09.2016 17,7 C 67 % 1017,6 hPa 0,5 l/m 1,3 km/h O-SO 10,8 C 17,6 C 0,7 km/h
26.09.2016 18,3 C 73 % 1019,0 hPa 0,0 l/m 1,4 km/h O-SO 13,1 C 18,1 C 0,8 km/h
27.09.2016 18,0 C 72 % 1022,4 hPa 0,5 l/m 0,6 km/h O-NO 12,5 C 18,0 C 0,4 km/h
28.09.2016 17,1 C 68 % 1026,1 hPa 0,0 l/m 3,2 km/h O-SO 10,6 C 16,8 C 1,8 km/h
29.09.2016 18,8 C 65 % 1021,1 hPa 0,0 l/m 6,4 km/h O-SO 10,9 C 18,3 C 3,5 km/h
Min-Datum 07.09.16 07.09.16 15.09.16 7 Tage 01.09.16 - 07.09.16 07.09.16 01.09.16
Min-Zeit 08:12 08:12 04:12 - 10:12 - 08:12 08:12 10:12
Minimum 0,0 C 0 % 1005,4 hPa - 0,0 km/h - -60,0 C 0,0 C 0,0 km/h
Max-Datum 12.09.16 22.09.16 28.09.16 01.09.16 28.09.16 - 12.09.16 12.09.16 28.09.16
Max-Zeit 17:12 04:12 10:12 10:12 13:12 - 13:12 17:12 13:12
Maximum 40,2 C 84 % 1027,6 hPa 78,2 l/m 27,2 km/h
O-SO
- 19,4 C 40,2 C 15,1 km/h
O-SO
Durchschnitt 20,1 C 65 % 1016,7 hPa #112,9 l/m 2,1 km/h N-NO 12,1 C 19,9 C 1,2 km/h

Durchschnitt Minimum Temp.11,1 C
Durchschnitt Maximum Temp.31,6 C
www.sexauwetter.de